sensor_id;sensor_type;location;lat;lon;timestamp;P1;durP1;ratioP1;P2;durP2;ratioP2
53521;SDS011;39398;48.382;9.802;2022-09-17T00:00:41;1.27;;;1.17;;
53521;SDS011;39398;48.382;9.802;2022-09-17T00:01:44;1.33;;;1.20;;
53521;SDS011;39398;48.382;9.802;2022-09-17T00:02:47;1.40;;;1.30;;
53521;SDS011;39398;48.382;9.802;2022-09-17T00:03:50;1.83;;;1.00;;
53521;SDS011;39398;48.382;9.802;2022-09-17T00:04:52;1.20;;;1.10;;
53521;SDS011;39398;48.382;9.802;2022-09-17T00:05:57;1.30;;;1.20;;
53521;SDS011;39398;48.382;9.802;2022-09-17T00:06:59;1.25;;;1.00;;
53521;SDS011;39398;48.382;9.802;2022-09-17T00:08:01;1.98;;;1.10;;
53521;SDS011;39398;48.382;9.802;2022-09-17T00:09:04;1.42;;;1.20;;
53521;SDS011;39398;48.382;9.802;2022-09-17T00:10:06;1.38;;;1.20;;
53521;SDS011;39398;48.382;9.802;2022-09-17T00:11:08;1.73;;;1.23;;
53521;SDS011;39398;48.382;9.802;2022-09-17T00:12:11;1.15;;;1.05;;
53521;SDS011;39398;48.382;9.802;2022-09-17T00:13:13;4.07;;;1.17;;
53521;SDS011;39398;48.382;9.802;2022-09-17T00:14:15;1.75;;;0.90;;
53521;SDS011;39398;48.382;9.802;2022-09-17T00:15:19;2.75;;;1.20;;
53521;SDS011;39398;48.382;9.802;2022-09-17T00:16:22;1.35;;;1.25;;
53521;SDS011;39398;48.382;9.802;2022-09-17T00:17:28;1.25;;;1.15;;
53521;SDS011;39398;48.382;9.802;2022-09-17T00:18:29;1.50;;;1.20;;
53521;SDS011;39398;48.382;9.802;2022-09-17T00:19:30;3.95;;;1.58;;
53521;SDS011;39398;48.382;9.802;2022-09-17T00:20:36;1.20;;;1.10;;
53521;SDS011;39398;48.382;9.802;2022-09-17T00:21:38;2.22;;;0.80;;
53521;SDS011;39398;48.382;9.802;2022-09-17T00:22:41;1.33;;;1.23;;
53521;SDS011;39398;48.382;9.802;2022-09-17T00:23:42;1.15;;;1.05;;
53521;SDS011;39398;48.382;9.802;2022-09-17T00:24:44;2.28;;;1.05;;
53521;SDS011;39398;48.382;9.802;2022-09-17T00:25:45;1.95;;;1.00;;
53521;SDS011;39398;48.382;9.802;2022-09-17T00:26:47;1.55;;;1.00;;
53521;SDS011;39398;48.382;9.802;2022-09-17T00:27:49;2.15;;;1.00;;
53521;SDS011;39398;48.382;9.802;2022-09-17T00:28:51;2.35;;;1.00;;
53521;SDS011;39398;48.382;9.802;2022-09-17T00:29:53;3.22;;;1.00;;
53521;SDS011;39398;48.382;9.802;2022-09-17T00:30:55;3.30;;;1.08;;
53521;SDS011;39398;48.382;9.802;2022-09-17T00:31:56;1.30;;;1.10;;
53521;SDS011;39398;48.382;9.802;2022-09-17T00:32:59;1.80;;;1.02;;
53521;SDS011;39398;48.382;9.802;2022-09-17T00:34:01;2.80;;;1.05;;
53521;SDS011;39398;48.382;9.802;2022-09-17T00:35:04;1.13;;;0.90;;
53521;SDS011;39398;48.382;9.802;2022-09-17T00:36:07;0.88;;;0.80;;
53521;SDS011;39398;48.382;9.802;2022-09-17T00:37:08;0.90;;;0.85;;
53521;SDS011;39398;48.382;9.802;2022-09-17T00:38:10;1.00;;;1.00;;
53521;SDS011;39398;48.382;9.802;2022-09-17T00:39:11;0.80;;;0.80;;
53521;SDS011;39398;48.382;9.802;2022-09-17T00:40:13;2.55;;;0.93;;
53521;SDS011;39398;48.382;9.802;2022-09-17T00:41:15;1.02;;;0.90;;
53521;SDS011;39398;48.382;9.802;2022-09-17T00:42:17;1.20;;;1.00;;
53521;SDS011;39398;48.382;9.802;2022-09-17T00:43:39;1.48;;;0.80;;
53521;SDS011;39398;48.382;9.802;2022-09-17T00:44:44;3.10;;;1.42;;
53521;SDS011;39398;48.382;9.802;2022-09-17T00:45:50;2.83;;;1.17;;
53521;SDS011;39398;48.382;9.802;2022-09-17T00:46:52;1.23;;;0.90;;
53521;SDS011;39398;48.382;9.802;2022-09-17T00:47:54;2.53;;;0.95;;
53521;SDS011;39398;48.382;9.802;2022-09-17T00:48:59;1.10;;;1.00;;
53521;SDS011;39398;48.382;9.802;2022-09-17T00:50:04;2.25;;;1.10;;
53521;SDS011;39398;48.382;9.802;2022-09-17T00:51:08;1.27;;;1.17;;
53521;SDS011;39398;48.382;9.802;2022-09-17T00:52:13;0.85;;;0.85;;
53521;SDS011;39398;48.382;9.802;2022-09-17T00:53:18;1.17;;;1.05;;
53521;SDS011;39398;48.382;9.802;2022-09-17T00:54:22;1.23;;;1.13;;
53521;SDS011;39398;48.382;9.802;2022-09-17T00:55:25;1.38;;;1.20;;
53521;SDS011;39398;48.382;9.802;2022-09-17T00:56:30;2.70;;;1.10;;
53521;SDS011;39398;48.382;9.802;2022-09-17T00:57:33;1.08;;;0.88;;
53521;SDS011;39398;48.382;9.802;2022-09-17T00:58:36;2.72;;;1.38;;
53521;SDS011;39398;48.382;9.802;2022-09-17T00:59:41;1.73;;;1.27;;
53521;SDS011;39398;48.382;9.802;2022-09-17T01:00:43;1.30;;;1.20;;
53521;SDS011;39398;48.382;9.802;2022-09-17T01:01:44;1.25;;;1.10;;
53521;SDS011;39398;48.382;9.802;2022-09-17T01:02:46;1.95;;;1.13;;
53521;SDS011;39398;48.382;9.802;2022-09-17T01:03:47;4.30;;;1.40;;
53521;SDS011;39398;48.382;9.802;2022-09-17T01:04:50;3.38;;;1.20;;
53521;SDS011;39398;48.382;9.802;2022-09-17T01:05:53;1.35;;;1.13;;
53521;SDS011;39398;48.382;9.802;2022-09-17T01:07:04;2.10;;;1.17;;
53521;SDS011;39398;48.382;9.802;2022-09-17T01:08:14;1.52;;;1.10;;
53521;SDS011;39398;48.382;9.802;2022-09-17T01:09:31;1.30;;;1.13;;
53521;SDS011;39398;48.382;9.802;2022-09-17T01:10:50;6.93;;;1.10;;
53521;SDS011;39398;48.382;9.802;2022-09-17T01:12:10;5.57;;;1.23;;
53521;SDS011;39398;48.382;9.802;2022-09-17T01:13:25;2.80;;;1.25;;
53521;SDS011;39398;48.382;9.802;2022-09-17T01:14:37;3.60;;;1.20;;
53521;SDS011;39398;48.382;9.802;2022-09-17T01:15:57;1.13;;;0.88;;
53521;SDS011;39398;48.382;9.802;2022-09-17T01:17:06;1.08;;;0.90;;
53521;SDS011;39398;48.382;9.802;2022-09-17T01:18:20;1.55;;;1.10;;
53521;SDS011;39398;48.382;9.802;2022-09-17T01:19:34;1.65;;;0.80;;
53521;SDS011;39398;48.382;9.802;2022-09-17T01:22:38;0.93;;;0.90;;
53521;SDS011;39398;48.382;9.802;2022-09-17T01:24:02;1.70;;;1.33;;
53521;SDS011;39398;48.382;9.802;2022-09-17T01:25:24;1.40;;;0.90;;
53521;SDS011;39398;48.382;9.802;2022-09-17T01:26:42;1.15;;;1.00;;
53521;SDS011;39398;48.382;9.802;2022-09-17T01:28:20;1.35;;;1.25;;
53521;SDS011;39398;48.382;9.802;2022-09-17T01:29:32;2.45;;;0.95;;
53521;SDS011;39398;48.382;9.802;2022-09-17T01:30:55;2.03;;;1.00;;
53521;SDS011;39398;48.382;9.802;2022-09-17T01:32:07;2.90;;;1.10;;
53521;SDS011;39398;48.382;9.802;2022-09-17T01:33:14;2.60;;;1.08;;
53521;SDS011;39398;48.382;9.802;2022-09-17T01:34:21;2.15;;;1.15;;
53521;SDS011;39398;48.382;9.802;2022-09-17T01:35:32;1.73;;;1.10;;
53521;SDS011;39398;48.382;9.802;2022-09-17T01:36:40;1.95;;;0.90;;
53521;SDS011;39398;48.382;9.802;2022-09-17T01:37:48;1.27;;;1.17;;
53521;SDS011;39398;48.382;9.802;2022-09-17T01:39:00;2.60;;;1.25;;
53521;SDS011;39398;48.382;9.802;2022-09-17T01:40:06;1.65;;;1.10;;
53521;SDS011;39398;48.382;9.802;2022-09-17T01:41:15;1.48;;;1.10;;
53521;SDS011;39398;48.382;9.802;2022-09-17T01:42:28;2.15;;;1.27;;
53521;SDS011;39398;48.382;9.802;2022-09-17T01:43:40;1.90;;;1.17;;
53521;SDS011;39398;48.382;9.802;2022-09-17T01:44:49;1.33;;;1.00;;
53521;SDS011;39398;48.382;9.802;2022-09-17T01:45:58;3.40;;;1.20;;
53521;SDS011;39398;48.382;9.802;2022-09-17T01:47:06;3.97;;;1.17;;
53521;SDS011;39398;48.382;9.802;2022-09-17T01:48:12;3.25;;;1.08;;
53521;SDS011;39398;48.382;9.802;2022-09-17T01:49:16;1.23;;;1.13;;
53521;SDS011;39398;48.382;9.802;2022-09-17T01:50:22;1.80;;;1.25;;
53521;SDS011;39398;48.382;9.802;2022-09-17T01:51:28;2.55;;;1.27;;
53521;SDS011;39398;48.382;9.802;2022-09-17T01:52:36;4.82;;;1.30;;
53521;SDS011;39398;48.382;9.802;2022-09-17T01:53:40;2.65;;;1.23;;
53521;SDS011;39398;48.382;9.802;2022-09-17T01:54:46;1.10;;;1.10;;
53521;SDS011;39398;48.382;9.802;2022-09-17T01:55:51;3.80;;;1.10;;
53521;SDS011;39398;48.382;9.802;2022-09-17T01:56:57;3.13;;;1.30;;
53521;SDS011;39398;48.382;9.802;2022-09-17T01:58:03;3.70;;;1.10;;
53521;SDS011;39398;48.382;9.802;2022-09-17T01:59:08;1.73;;;1.00;;
53521;SDS011;39398;48.382;9.802;2022-09-17T02:00:16;3.05;;;1.15;;
53521;SDS011;39398;48.382;9.802;2022-09-17T02:01:19;1.35;;;1.25;;
53521;SDS011;39398;48.382;9.802;2022-09-17T02:02:25;4.82;;;1.38;;
53521;SDS011;39398;48.382;9.802;2022-09-17T02:03:30;2.53;;;1.10;;
53521;SDS011;39398;48.382;9.802;2022-09-17T02:04:35;1.83;;;1.00;;
53521;SDS011;39398;48.382;9.802;2022-09-17T02:05:42;1.50;;;0.90;;
53521;SDS011;39398;48.382;9.802;2022-09-17T02:06:50;4.22;;;1.30;;
53521;SDS011;39398;48.382;9.802;2022-09-17T02:07:58;2.15;;;1.10;;
53521;SDS011;39398;48.382;9.802;2022-09-17T02:09:07;2.67;;;1.20;;
53521;SDS011;39398;48.382;9.802;2022-09-17T02:10:16;2.95;;;1.20;;
53521;SDS011;39398;48.382;9.802;2022-09-17T02:11:20;3.38;;;1.35;;
53521;SDS011;39398;48.382;9.802;2022-09-17T02:12:23;1.30;;;1.20;;
53521;SDS011;39398;48.382;9.802;2022-09-17T02:13:32;2.22;;;1.23;;
53521;SDS011;39398;48.382;9.802;2022-09-17T02:14:39;2.35;;;1.13;;
53521;SDS011;39398;48.382;9.802;2022-09-17T02:15:48;4.70;;;1.20;;
53521;SDS011;39398;48.382;9.802;2022-09-17T02:16:58;1.67;;;1.10;;
53521;SDS011;39398;48.382;9.802;2022-09-17T02:18:04;2.92;;;1.30;;
53521;SDS011;39398;48.382;9.802;2022-09-17T02:19:09;1.52;;;1.00;;
53521;SDS011;39398;48.382;9.802;2022-09-17T02:20:16;2.70;;;1.25;;
53521;SDS011;39398;48.382;9.802;2022-09-17T02:21:26;3.10;;;1.98;;
53521;SDS011;39398;48.382;9.802;2022-09-17T02:22:36;4.68;;;1.30;;
53521;SDS011;39398;48.382;9.802;2022-09-17T02:23:43;2.70;;;1.20;;
53521;SDS011;39398;48.382;9.802;2022-09-17T02:24:48;3.08;;;1.50;;
53521;SDS011;39398;48.382;9.802;2022-09-17T02:26:01;4.63;;;1.90;;
53521;SDS011;39398;48.382;9.802;2022-09-17T02:27:08;2.42;;;1.40;;
53521;SDS011;39398;48.382;9.802;2022-09-17T02:28:16;2.40;;;1.45;;
53521;SDS011;39398;48.382;9.802;2022-09-17T02:29:23;2.90;;;1.55;;
53521;SDS011;39398;48.382;9.802;2022-09-17T02:30:34;1.38;;;1.27;;
53521;SDS011;39398;48.382;9.802;2022-09-17T02:31:36;2.65;;;1.40;;
53521;SDS011;39398;48.382;9.802;2022-09-17T02:32:39;3.97;;;1.58;;
53521;SDS011;39398;48.382;9.802;2022-09-17T02:33:42;3.00;;;1.30;;
53521;SDS011;39398;48.382;9.802;2022-09-17T02:34:48;5.35;;;1.38;;
53521;SDS011;39398;48.382;9.802;2022-09-17T02:35:49;4.32;;;1.30;;
53521;SDS011;39398;48.382;9.802;2022-09-17T02:36:51;2.80;;;1.30;;
53521;SDS011;39398;48.382;9.802;2022-09-17T02:37:52;2.03;;;1.40;;
53521;SDS011;39398;48.382;9.802;2022-09-17T02:38:56;3.03;;;1.60;;
53521;SDS011;39398;48.382;9.802;2022-09-17T02:39:59;5.55;;;1.45;;
53521;SDS011;39398;48.382;9.802;2022-09-17T02:41:04;3.70;;;1.70;;
53521;SDS011;39398;48.382;9.802;2022-09-17T02:42:14;3.63;;;1.48;;
53521;SDS011;39398;48.382;9.802;2022-09-17T02:43:25;3.38;;;1.73;;
53521;SDS011;39398;48.382;9.802;2022-09-17T02:44:36;3.30;;;1.88;;
53521;SDS011;39398;48.382;9.802;2022-09-17T02:45:48;5.47;;;1.50;;
53521;SDS011;39398;48.382;9.802;2022-09-17T02:47:05;3.92;;;1.80;;
53521;SDS011;39398;48.382;9.802;2022-09-17T02:48:23;2.10;;;1.50;;
53521;SDS011;39398;48.382;9.802;2022-09-17T02:49:43;4.13;;;1.40;;
53521;SDS011;39398;48.382;9.802;2022-09-17T02:51:02;2.00;;;1.48;;
53521;SDS011;39398;48.382;9.802;2022-09-17T02:52:13;2.35;;;1.52;;
53521;SDS011;39398;48.382;9.802;2022-09-17T02:53:28;3.75;;;1.50;;
53521;SDS011;39398;48.382;9.802;2022-09-17T02:54:37;1.27;;;1.17;;
53521;SDS011;39398;48.382;9.802;2022-09-17T02:55:46;2.22;;;1.48;;
53521;SDS011;39398;48.382;9.802;2022-09-17T02:56:55;3.92;;;1.55;;
53521;SDS011;39398;48.382;9.802;2022-09-17T02:58:07;1.67;;;1.50;;
53521;SDS011;39398;48.382;9.802;2022-09-17T02:59:18;2.47;;;1.63;;
53521;SDS011;39398;48.382;9.802;2022-09-17T03:00:24;2.00;;;1.50;;
53521;SDS011;39398;48.382;9.802;2022-09-17T03:01:27;3.45;;;1.73;;
53521;SDS011;39398;48.382;9.802;2022-09-17T03:02:34;4.82;;;1.55;;
53521;SDS011;39398;48.382;9.802;2022-09-17T03:03:42;1.80;;;1.45;;
53521;SDS011;39398;48.382;9.802;2022-09-17T03:04:46;3.28;;;1.50;;
53521;SDS011;39398;48.382;9.802;2022-09-17T03:05:49;3.65;;;1.60;;
53521;SDS011;39398;48.382;9.802;2022-09-17T03:06:51;3.00;;;1.42;;
53521;SDS011;39398;48.382;9.802;2022-09-17T03:07:53;4.53;;;1.30;;
53521;SDS011;39398;48.382;9.802;2022-09-17T03:08:55;5.55;;;1.70;;
53521;SDS011;39398;48.382;9.802;2022-09-17T03:09:56;3.00;;;1.63;;
53521;SDS011;39398;48.382;9.802;2022-09-17T03:10:58;2.22;;;1.48;;
53521;SDS011;39398;48.382;9.802;2022-09-17T03:11:59;3.88;;;1.50;;
53521;SDS011;39398;48.382;9.802;2022-09-17T03:13:01;1.63;;;1.38;;
53521;SDS011;39398;48.382;9.802;2022-09-17T03:14:03;3.92;;;1.40;;
53521;SDS011;39398;48.382;9.802;2022-09-17T03:15:04;9.25;;;1.40;;
53521;SDS011;39398;48.382;9.802;2022-09-17T03:16:06;2.67;;;1.38;;
53521;SDS011;39398;48.382;9.802;2022-09-17T03:17:08;2.25;;;1.33;;
53521;SDS011;39398;48.382;9.802;2022-09-17T03:18:10;5.97;;;1.60;;
53521;SDS011;39398;48.382;9.802;2022-09-17T03:19:15;4.65;;;1.88;;
53521;SDS011;39398;48.382;9.802;2022-09-17T03:20:17;3.30;;;1.60;;
53521;SDS011;39398;48.382;9.802;2022-09-17T03:21:18;3.20;;;1.58;;
53521;SDS011;39398;48.382;9.802;2022-09-17T03:22:20;1.90;;;1.65;;
53521;SDS011;39398;48.382;9.802;2022-09-17T03:23:21;2.30;;;1.50;;
53521;SDS011;39398;48.382;9.802;2022-09-17T03:24:23;2.83;;;1.60;;
53521;SDS011;39398;48.382;9.802;2022-09-17T03:25:24;4.30;;;1.75;;
53521;SDS011;39398;48.382;9.802;2022-09-17T03:26:26;1.52;;;1.40;;
53521;SDS011;39398;48.382;9.802;2022-09-17T03:27:27;4.75;;;1.90;;
53521;SDS011;39398;48.382;9.802;2022-09-17T03:28:29;3.38;;;1.63;;
53521;SDS011;39398;48.382;9.802;2022-09-17T03:29:30;3.20;;;1.45;;
53521;SDS011;39398;48.382;9.802;2022-09-17T03:30:32;3.60;;;1.40;;
53521;SDS011;39398;48.382;9.802;2022-09-17T03:31:33;1.73;;;1.40;;
53521;SDS011;39398;48.382;9.802;2022-09-17T03:32:35;3.72;;;1.40;;
53521;SDS011;39398;48.382;9.802;2022-09-17T03:33:36;3.25;;;1.67;;
53521;SDS011;39398;48.382;9.802;2022-09-17T03:34:39;4.25;;;1.83;;
53521;SDS011;39398;48.382;9.802;2022-09-17T03:35:41;7.50;;;1.80;;
53521;SDS011;39398;48.382;9.802;2022-09-17T03:36:43;3.55;;;1.70;;
53521;SDS011;39398;48.382;9.802;2022-09-17T03:37:44;3.83;;;1.58;;
53521;SDS011;39398;48.382;9.802;2022-09-17T03:38:45;5.15;;;1.73;;
53521;SDS011;39398;48.382;9.802;2022-09-17T03:39:47;3.50;;;1.50;;
53521;SDS011;39398;48.382;9.802;2022-09-17T03:40:58;5.35;;;1.65;;
53521;SDS011;39398;48.382;9.802;2022-09-17T03:42:00;2.78;;;1.42;;
53521;SDS011;39398;48.382;9.802;2022-09-17T03:43:01;4.28;;;1.83;;
53521;SDS011;39398;48.382;9.802;2022-09-17T03:44:03;2.45;;;1.60;;
53521;SDS011;39398;48.382;9.802;2022-09-17T03:45:05;3.88;;;1.63;;
53521;SDS011;39398;48.382;9.802;2022-09-17T03:46:07;3.67;;;1.45;;
53521;SDS011;39398;48.382;9.802;2022-09-17T03:47:09;5.72;;;1.52;;
53521;SDS011;39398;48.382;9.802;2022-09-17T03:48:10;6.53;;;1.80;;
53521;SDS011;39398;48.382;9.802;2022-09-17T03:49:12;4.72;;;1.77;;
53521;SDS011;39398;48.382;9.802;2022-09-17T03:50:14;2.65;;;1.60;;
53521;SDS011;39398;48.382;9.802;2022-09-17T03:51:16;5.28;;;1.88;;
53521;SDS011;39398;48.382;9.802;2022-09-17T03:52:18;4.65;;;1.55;;
53521;SDS011;39398;48.382;9.802;2022-09-17T03:53:19;6.40;;;1.60;;
53521;SDS011;39398;48.382;9.802;2022-09-17T03:54:20;4.80;;;1.67;;
53521;SDS011;39398;48.382;9.802;2022-09-17T03:55:22;4.88;;;1.80;;
53521;SDS011;39398;48.382;9.802;2022-09-17T03:56:23;5.53;;;1.70;;
53521;SDS011;39398;48.382;9.802;2022-09-17T03:57:25;6.47;;;1.80;;
53521;SDS011;39398;48.382;9.802;2022-09-17T03:58:26;1.67;;;1.42;;
53521;SDS011;39398;48.382;9.802;2022-09-17T03:59:28;3.58;;;2.00;;
53521;SDS011;39398;48.382;9.802;2022-09-17T04:00:30;5.43;;;1.70;;
53521;SDS011;39398;48.382;9.802;2022-09-17T04:01:31;4.10;;;1.50;;
53521;SDS011;39398;48.382;9.802;2022-09-17T04:02:33;5.20;;;1.80;;
53521;SDS011;39398;48.382;9.802;2022-09-17T04:03:34;5.85;;;1.70;;
53521;SDS011;39398;48.382;9.802;2022-09-17T04:04:36;4.45;;;1.50;;
53521;SDS011;39398;48.382;9.802;2022-09-17T04:05:39;3.85;;;1.70;;
53521;SDS011;39398;48.382;9.802;2022-09-17T04:06:40;7.28;;;2.00;;
53521;SDS011;39398;48.382;9.802;2022-09-17T04:07:41;3.55;;;1.83;;
53521;SDS011;39398;48.382;9.802;2022-09-17T04:08:43;5.88;;;2.00;;
53521;SDS011;39398;48.382;9.802;2022-09-17T04:09:44;6.00;;;1.83;;
53521;SDS011;39398;48.382;9.802;2022-09-17T04:10:46;4.97;;;2.00;;
53521;SDS011;39398;48.382;9.802;2022-09-17T04:11:48;5.47;;;2.30;;
53521;SDS011;39398;48.382;9.802;2022-09-17T04:12:49;6.13;;;2.20;;
53521;SDS011;39398;48.382;9.802;2022-09-17T04:13:51;7.28;;;2.10;;
53521;SDS011;39398;48.382;9.802;2022-09-17T04:14:52;5.28;;;2.20;;
53521;SDS011;39398;48.382;9.802;2022-09-17T04:15:54;5.10;;;1.90;;
53521;SDS011;39398;48.382;9.802;2022-09-17T04:16:56;7.45;;;2.38;;
53521;SDS011;39398;48.382;9.802;2022-09-17T04:17:58;4.53;;;2.00;;
53521;SDS011;39398;48.382;9.802;2022-09-17T04:19:00;5.28;;;1.90;;
53521;SDS011;39398;48.382;9.802;2022-09-17T04:20:01;2.97;;;1.90;;
53521;SDS011;39398;48.382;9.802;2022-09-17T04:21:05;6.32;;;3.13;;
53521;SDS011;39398;48.382;9.802;2022-09-17T04:22:06;9.23;;;2.25;;
53521;SDS011;39398;48.382;9.802;2022-09-17T04:23:08;8.80;;;2.30;;
53521;SDS011;39398;48.382;9.802;2022-09-17T04:24:11;7.40;;;2.83;;
53521;SDS011;39398;48.382;9.802;2022-09-17T04:25:12;4.00;;;2.10;;
53521;SDS011;39398;48.382;9.802;2022-09-17T04:26:14;6.72;;;2.22;;
53521;SDS011;39398;48.382;9.802;2022-09-17T04:27:15;6.78;;;2.25;;
53521;SDS011;39398;48.382;9.802;2022-09-17T04:28:16;5.20;;;2.53;;
53521;SDS011;39398;48.382;9.802;2022-09-17T04:29:18;5.63;;;2.38;;
53521;SDS011;39398;48.382;9.802;2022-09-17T04:30:19;9.18;;;2.50;;
53521;SDS011;39398;48.382;9.802;2022-09-17T04:31:21;9.43;;;2.40;;
53521;SDS011;39398;48.382;9.802;2022-09-17T04:32:22;7.28;;;2.42;;
53521;SDS011;39398;48.382;9.802;2022-09-17T04:33:24;6.70;;;2.50;;
53521;SDS011;39398;48.382;9.802;2022-09-17T04:34:25;5.45;;;2.38;;
53521;SDS011;39398;48.382;9.802;2022-09-17T04:35:27;5.85;;;2.45;;
53521;SDS011;39398;48.382;9.802;2022-09-17T04:36:30;4.75;;;2.30;;
53521;SDS011;39398;48.382;9.802;2022-09-17T04:37:31;3.42;;;2.33;;
53521;SDS011;39398;48.382;9.802;2022-09-17T04:38:32;5.45;;;2.70;;
53521;SDS011;39398;48.382;9.802;2022-09-17T04:39:34;6.20;;;2.65;;
53521;SDS011;39398;48.382;9.802;2022-09-17T04:40:35;9.55;;;2.25;;
53521;SDS011;39398;48.382;9.802;2022-09-17T04:41:37;7.93;;;2.45;;
53521;SDS011;39398;48.382;9.802;2022-09-17T04:42:38;8.30;;;2.08;;
53521;SDS011;39398;48.382;9.802;2022-09-17T04:43:40;5.72;;;2.50;;
53521;SDS011;39398;48.382;9.802;2022-09-17T04:44:41;7.55;;;2.58;;
53521;SDS011;39398;48.382;9.802;2022-09-17T04:45:44;6.50;;;2.15;;
53521;SDS011;39398;48.382;9.802;2022-09-17T04:46:46;4.68;;;1.90;;
53521;SDS011;39398;48.382;9.802;2022-09-17T04:47:47;4.00;;;2.03;;
53521;SDS011;39398;48.382;9.802;2022-09-17T04:48:49;5.00;;;1.80;;
53521;SDS011;39398;48.382;9.802;2022-09-17T04:49:50;6.72;;;2.10;;
53521;SDS011;39398;48.382;9.802;2022-09-17T04:50:52;7.97;;;2.28;;
53521;SDS011;39398;48.382;9.802;2022-09-17T04:51:54;7.72;;;2.55;;
53521;SDS011;39398;48.382;9.802;2022-09-17T04:52:56;8.10;;;2.30;;
53521;SDS011;39398;48.382;9.802;2022-09-17T04:53:57;7.57;;;2.30;;
53521;SDS011;39398;48.382;9.802;2022-09-17T04:54:59;5.85;;;2.33;;
53521;SDS011;39398;48.382;9.802;2022-09-17T04:56:00;8.43;;;2.50;;
53521;SDS011;39398;48.382;9.802;2022-09-17T04:57:02;9.77;;;2.50;;
53521;SDS011;39398;48.382;9.802;2022-09-17T04:58:04;4.65;;;2.05;;
53521;SDS011;39398;48.382;9.802;2022-09-17T04:59:05;6.63;;;2.40;;
53521;SDS011;39398;48.382;9.802;2022-09-17T05:00:08;9.15;;;2.40;;
53521;SDS011;39398;48.382;9.802;2022-09-17T05:01:10;8.95;;;2.58;;
53521;SDS011;39398;48.382;9.802;2022-09-17T05:02:12;7.03;;;2.38;;
53521;SDS011;39398;48.382;9.802;2022-09-17T05:03:14;8.30;;;2.15;;
53521;SDS011;39398;48.382;9.802;2022-09-17T05:04:16;5.93;;;1.92;;
53521;SDS011;39398;48.382;9.802;2022-09-17T05:05:17;4.63;;;1.83;;
53521;SDS011;39398;48.382;9.802;2022-09-17T05:06:20;7.03;;;2.25;;
53521;SDS011;39398;48.382;9.802;2022-09-17T05:07:22;3.25;;;2.10;;
53521;SDS011;39398;48.382;9.802;2022-09-17T05:08:24;5.32;;;2.30;;
53521;SDS011;39398;48.382;9.802;2022-09-17T05:09:25;5.95;;;2.00;;
53521;SDS011;39398;48.382;9.802;2022-09-17T05:10:27;7.72;;;2.30;;
53521;SDS011;39398;48.382;9.802;2022-09-17T05:11:28;8.48;;;2.13;;
53521;SDS011;39398;48.382;9.802;2022-09-17T05:12:30;4.90;;;2.08;;
53521;SDS011;39398;48.382;9.802;2022-09-17T05:13:34;5.57;;;1.90;;
53521;SDS011;39398;48.382;9.802;2022-09-17T05:14:36;9.75;;;2.15;;
53521;SDS011;39398;48.382;9.802;2022-09-17T05:15:37;10.82;;;1.98;;
53521;SDS011;39398;48.382;9.802;2022-09-17T05:16:39;4.53;;;1.77;;
53521;SDS011;39398;48.382;9.802;2022-09-17T05:17:40;13.02;;;1.85;;
53521;SDS011;39398;48.382;9.802;2022-09-17T05:18:41;7.00;;;2.10;;
53521;SDS011;39398;48.382;9.802;2022-09-17T05:19:43;10.85;;;2.08;;
53521;SDS011;39398;48.382;9.802;2022-09-17T05:20:44;6.72;;;2.03;;
53521;SDS011;39398;48.382;9.802;2022-09-17T05:21:46;5.72;;;1.92;;
53521;SDS011;39398;48.382;9.802;2022-09-17T05:22:49;3.78;;;1.60;;
53521;SDS011;39398;48.382;9.802;2022-09-17T05:23:51;7.68;;;1.80;;
53521;SDS011;39398;48.382;9.802;2022-09-17T05:24:53;6.78;;;1.52;;
53521;SDS011;39398;48.382;9.802;2022-09-17T05:25:56;5.63;;;1.52;;
53521;SDS011;39398;48.382;9.802;2022-09-17T05:26:58;5.50;;;1.88;;
53521;SDS011;39398;48.382;9.802;2022-09-17T05:27:59;8.10;;;2.35;;
53521;SDS011;39398;48.382;9.802;2022-09-17T05:29:01;4.07;;;1.88;;
53521;SDS011;39398;48.382;9.802;2022-09-17T05:30:03;5.60;;;2.40;;
53521;SDS011;39398;48.382;9.802;2022-09-17T05:31:05;5.32;;;2.00;;
53521;SDS011;39398;48.382;9.802;2022-09-17T05:32:07;3.67;;;1.75;;
53521;SDS011;39398;48.382;9.802;2022-09-17T05:33:08;2.45;;;1.50;;
53521;SDS011;39398;48.382;9.802;2022-09-17T05:34:10;4.43;;;1.70;;
53521;SDS011;39398;48.382;9.802;2022-09-17T05:35:11;4.80;;;1.65;;
53521;SDS011;39398;48.382;9.802;2022-09-17T05:36:13;4.53;;;1.80;;
53521;SDS011;39398;48.382;9.802;2022-09-17T05:37:14;6.10;;;1.70;;
53521;SDS011;39398;48.382;9.802;2022-09-17T05:38:17;8.65;;;2.20;;
53521;SDS011;39398;48.382;9.802;2022-09-17T05:39:18;7.10;;;1.38;;
53521;SDS011;39398;48.382;9.802;2022-09-17T05:40:20;7.18;;;1.73;;
53521;SDS011;39398;48.382;9.802;2022-09-17T05:41:21;6.28;;;1.80;;
53521;SDS011;39398;48.382;9.802;2022-09-17T05:42:23;6.10;;;1.58;;
53521;SDS011;39398;48.382;9.802;2022-09-17T05:43:24;8.32;;;1.40;;
53521;SDS011;39398;48.382;9.802;2022-09-17T05:44:26;5.53;;;1.80;;
53521;SDS011;39398;48.382;9.802;2022-09-17T05:45:27;5.78;;;1.50;;
53521;SDS011;39398;48.382;9.802;2022-09-17T05:46:29;6.60;;;1.70;;
53521;SDS011;39398;48.382;9.802;2022-09-17T05:47:31;8.18;;;2.25;;
53521;SDS011;39398;48.382;9.802;2022-09-17T05:48:32;8.20;;;2.35;;
53521;SDS011;39398;48.382;9.802;2022-09-17T05:49:34;4.75;;;1.98;;
53521;SDS011;39398;48.382;9.802;2022-09-17T05:50:35;8.27;;;1.92;;
53521;SDS011;39398;48.382;9.802;2022-09-17T05:51:37;4.38;;;1.45;;
53521;SDS011;39398;48.382;9.802;2022-09-17T05:52:38;10.30;;;1.80;;
53521;SDS011;39398;48.382;9.802;2022-09-17T05:53:41;8.77;;;1.90;;
53521;SDS011;39398;48.382;9.802;2022-09-17T05:54:42;7.57;;;2.00;;
53521;SDS011;39398;48.382;9.802;2022-09-17T05:55:44;7.43;;;1.60;;
53521;SDS011;39398;48.382;9.802;2022-09-17T05:56:45;14.40;;;1.90;;
53521;SDS011;39398;48.382;9.802;2022-09-17T05:57:47;3.53;;;1.60;;
53521;SDS011;39398;48.382;9.802;2022-09-17T05:58:48;6.45;;;1.63;;
53521;SDS011;39398;48.382;9.802;2022-09-17T05:59:50;7.70;;;1.50;;
53521;SDS011;39398;48.382;9.802;2022-09-17T06:00:51;12.68;;;2.33;;
53521;SDS011;39398;48.382;9.802;2022-09-17T06:01:53;7.57;;;1.98;;
53521;SDS011;39398;48.382;9.802;2022-09-17T06:02:55;9.18;;;1.80;;
53521;SDS011;39398;48.382;9.802;2022-09-17T06:03:57;7.75;;;1.90;;
53521;SDS011;39398;48.382;9.802;2022-09-17T06:04:58;11.35;;;1.77;;
53521;SDS011;39398;48.382;9.802;2022-09-17T06:06:00;5.85;;;1.65;;
53521;SDS011;39398;48.382;9.802;2022-09-17T06:07:02;6.57;;;1.88;;
53521;SDS011;39398;48.382;9.802;2022-09-17T06:08:04;5.43;;;1.70;;
53521;SDS011;39398;48.382;9.802;2022-09-17T06:09:08;6.45;;;2.25;;
53521;SDS011;39398;48.382;9.802;2022-09-17T06:10:10;7.00;;;1.90;;
53521;SDS011;39398;48.382;9.802;2022-09-17T06:11:11;6.85;;;1.40;;
53521;SDS011;39398;48.382;9.802;2022-09-17T06:12:12;7.07;;;1.77;;
53521;SDS011;39398;48.382;9.802;2022-09-17T06:13:14;9.25;;;2.13;;
53521;SDS011;39398;48.382;9.802;2022-09-17T06:14:16;12.27;;;2.08;;
53521;SDS011;39398;48.382;9.802;2022-09-17T06:15:17;7.53;;;1.52;;
53521;SDS011;39398;48.382;9.802;2022-09-17T06:16:19;4.05;;;1.52;;
53521;SDS011;39398;48.382;9.802;2022-09-17T06:17:21;5.60;;;1.50;;
53521;SDS011;39398;48.382;9.802;2022-09-17T06:18:22;9.07;;;1.77;;
53521;SDS011;39398;48.382;9.802;2022-09-17T06:19:24;3.95;;;1.27;;
53521;SDS011;39398;48.382;9.802;2022-09-17T06:20:25;9.75;;;1.75;;
53521;SDS011;39398;48.382;9.802;2022-09-17T06:21:27;4.97;;;1.27;;
53521;SDS011;39398;48.382;9.802;2022-09-17T06:22:28;7.88;;;1.40;;
53521;SDS011;39398;48.382;9.802;2022-09-17T06:23:30;7.18;;;1.67;;
53521;SDS011;39398;48.382;9.802;2022-09-17T06:24:34;9.48;;;2.00;;
53521;SDS011;39398;48.382;9.802;2022-09-17T06:25:35;6.88;;;1.75;;
53521;SDS011;39398;48.382;9.802;2022-09-17T06:26:36;7.70;;;1.90;;
53521;SDS011;39398;48.382;9.802;2022-09-17T06:27:38;6.93;;;1.52;;
53521;SDS011;39398;48.382;9.802;2022-09-17T06:28:39;7.88;;;1.88;;